Kronborg, Nebraska
Current Conditions -  °F | °C
As of 4:55 AM on Friday 21 Nov 2014 (Local Time) from KAUH Reporting Station
Clear Clear  
Wind Chill: 10°   Ceiling: Unl
Heat Index: 17°   Visibility: 10mi
Dew Point: 15°   Wind: 5mph
Humidity: 90%   Direction: 170°S
Pressure: 30.13"   Gusts: NA
Location:  41.0075°N, 98.0042°W
Report Text: KAUH 211055Z AUTO 17004KT 10SM CLR M08/M09 A3013 RMK AO2 T10811095
Loading
Personal Weather Stations






























Interactive Weather Map New forecast layout! Learn more

10-Day Weather Forecast

Advertisements
Track Severe Weather on mobile